sensor_id;sensor_type;location;lat;lon;timestamp;P1;durP1;ratioP1;P2;durP2;ratioP2
51764;SDS011;37835;53.256;6.456;2023-04-03T00:02:08;4.13;;;1.27;;
51764;SDS011;37835;53.256;6.456;2023-04-03T00:04:34;1.83;;;0.82;;
51764;SDS011;37835;53.256;6.456;2023-04-03T00:07:00;4.72;;;1.42;;
51764;SDS011;37835;53.256;6.456;2023-04-03T00:09:25;3.33;;;1.80;;
51764;SDS011;37835;53.256;6.456;2023-04-03T00:11:51;4.80;;;1.20;;
51764;SDS011;37835;53.256;6.456;2023-04-03T00:14:17;2.15;;;1.15;;
51764;SDS011;37835;53.256;6.456;2023-04-03T00:16:42;2.70;;;1.30;;
51764;SDS011;37835;53.256;6.456;2023-04-03T00:19:08;2.20;;;1.13;;
51764;SDS011;37835;53.256;6.456;2023-04-03T00:21:36;1.38;;;0.93;;
51764;SDS011;37835;53.256;6.456;2023-04-03T00:24:02;2.63;;;1.05;;
51764;SDS011;37835;53.256;6.456;2023-04-03T00:26:28;0.87;;;0.87;;
51764;SDS011;37835;53.256;6.456;2023-04-03T00:28:53;4.70;;;1.30;;
51764;SDS011;37835;53.256;6.456;2023-04-03T00:31:19;2.50;;;1.50;;
51764;SDS011;37835;53.256;6.456;2023-04-03T00:33:45;2.83;;;1.00;;
51764;SDS011;37835;53.256;6.456;2023-04-03T00:36:11;2.73;;;0.97;;
51764;SDS011;37835;53.256;6.456;2023-04-03T00:38:38;4.27;;;1.33;;
51764;SDS011;37835;53.256;6.456;2023-04-03T00:41:03;2.60;;;0.85;;
51764;SDS011;37835;53.256;6.456;2023-04-03T00:43:29;1.50;;;1.13;;
51764;SDS011;37835;53.256;6.456;2023-04-03T00:45:56;3.08;;;1.08;;
51764;SDS011;37835;53.256;6.456;2023-04-03T00:48:25;2.78;;;1.15;;
51764;SDS011;37835;53.256;6.456;2023-04-03T00:50:57;2.00;;;1.10;;
51764;SDS011;37835;53.256;6.456;2023-04-03T00:53:27;2.80;;;1.03;;
51764;SDS011;37835;53.256;6.456;2023-04-03T00:55:58;5.80;;;1.40;;
51764;SDS011;37835;53.256;6.456;2023-04-03T00:58:27;3.50;;;0.90;;
51764;SDS011;37835;53.256;6.456;2023-04-03T01:01:03;2.87;;;1.10;;
51764;SDS011;37835;53.256;6.456;2023-04-03T01:03:32;2.73;;;1.40;;
51764;SDS011;37835;53.256;6.456;2023-04-03T01:05:58;1.87;;;0.90;;
51764;SDS011;37835;53.256;6.456;2023-04-03T01:08:24;4.13;;;0.97;;
51764;SDS011;37835;53.256;6.456;2023-04-03T01:10:50;5.00;;;1.03;;
51764;SDS011;37835;53.256;6.456;2023-04-03T01:13:23;1.37;;;1.03;;
51764;SDS011;37835;53.256;6.456;2023-04-03T01:15:55;2.90;;;1.07;;
51764;SDS011;37835;53.256;6.456;2023-04-03T01:18:22;5.13;;;1.20;;
51764;SDS011;37835;53.256;6.456;2023-04-03T01:20:55;3.07;;;1.37;;
51764;SDS011;37835;53.256;6.456;2023-04-03T01:26:27;2.37;;;1.47;;
51764;SDS011;37835;53.256;6.456;2023-04-03T01:28:53;3.53;;;1.10;;
51764;SDS011;37835;53.256;6.456;2023-04-03T01:31:27;4.83;;;1.23;;
51764;SDS011;37835;53.256;6.456;2023-04-03T01:33:56;3.50;;;1.27;;
51764;SDS011;37835;53.256;6.456;2023-04-03T01:36:23;5.13;;;1.30;;
51764;SDS011;37835;53.256;6.456;2023-04-03T01:38:50;4.00;;;1.10;;
51764;SDS011;37835;53.256;6.456;2023-04-03T01:41:17;2.57;;;1.00;;
51764;SDS011;37835;53.256;6.456;2023-04-03T01:43:43;3.57;;;1.20;;
51764;SDS011;37835;53.256;6.456;2023-04-03T01:46:09;2.13;;;1.17;;
51764;SDS011;37835;53.256;6.456;2023-04-03T01:48:35;3.50;;;1.30;;
51764;SDS011;37835;53.256;6.456;2023-04-03T01:51:00;5.40;;;1.53;;
51764;SDS011;37835;53.256;6.456;2023-04-03T01:53:26;3.70;;;0.90;;
51764;SDS011;37835;53.256;6.456;2023-04-03T01:55:51;2.90;;;1.20;;
51764;SDS011;37835;53.256;6.456;2023-04-03T01:58:17;4.63;;;1.50;;
51764;SDS011;37835;53.256;6.456;2023-04-03T02:00:42;2.00;;;1.20;;
51764;SDS011;37835;53.256;6.456;2023-04-03T02:03:08;4.63;;;2.00;;
51764;SDS011;37835;53.256;6.456;2023-04-03T02:05:33;2.43;;;0.90;;
51764;SDS011;37835;53.256;6.456;2023-04-03T02:07:59;2.77;;;1.20;;
51764;SDS011;37835;53.256;6.456;2023-04-03T02:10:25;5.20;;;1.40;;
51764;SDS011;37835;53.256;6.456;2023-04-03T02:12:51;4.37;;;1.10;;
51764;SDS011;37835;53.256;6.456;2023-04-03T02:15:16;4.60;;;1.30;;
51764;SDS011;37835;53.256;6.456;2023-04-03T02:17:42;5.40;;;1.30;;
51764;SDS011;37835;53.256;6.456;2023-04-03T02:20:08;5.13;;;1.30;;
51764;SDS011;37835;53.256;6.456;2023-04-03T02:22:35;3.93;;;1.13;;
51764;SDS011;37835;53.256;6.456;2023-04-03T02:25:00;3.13;;;1.53;;
51764;SDS011;37835;53.256;6.456;2023-04-03T02:27:26;8.70;;;1.80;;
51764;SDS011;37835;53.256;6.456;2023-04-03T02:29:52;3.23;;;1.23;;
51764;SDS011;37835;53.256;6.456;2023-04-03T02:32:18;8.53;;;1.40;;
51764;SDS011;37835;53.256;6.456;2023-04-03T02:34:43;5.77;;;1.60;;
51764;SDS011;37835;53.256;6.456;2023-04-03T02:37:09;3.27;;;1.20;;
51764;SDS011;37835;53.256;6.456;2023-04-03T02:39:35;6.60;;;1.73;;
51764;SDS011;37835;53.256;6.456;2023-04-03T02:42:00;4.37;;;1.37;;
51764;SDS011;37835;53.256;6.456;2023-04-03T02:44:26;3.20;;;1.20;;
51764;SDS011;37835;53.256;6.456;2023-04-03T02:46:52;3.60;;;1.37;;
51764;SDS011;37835;53.256;6.456;2023-04-03T02:49:17;4.97;;;2.00;;
51764;SDS011;37835;53.256;6.456;2023-04-03T02:51:43;6.57;;;1.50;;
51764;SDS011;37835;53.256;6.456;2023-04-03T02:54:08;6.03;;;1.73;;
51764;SDS011;37835;53.256;6.456;2023-04-03T02:56:34;4.00;;;1.53;;
51764;SDS011;37835;53.256;6.456;2023-04-03T02:59:00;6.30;;;1.83;;
51764;SDS011;37835;53.256;6.456;2023-04-03T03:01:25;5.07;;;1.77;;
51764;SDS011;37835;53.256;6.456;2023-04-03T03:03:56;9.13;;;1.60;;
51764;SDS011;37835;53.256;6.456;2023-04-03T03:06:22;4.67;;;1.63;;
51764;SDS011;37835;53.256;6.456;2023-04-03T03:08:47;5.13;;;1.63;;
51764;SDS011;37835;53.256;6.456;2023-04-03T03:11:13;7.03;;;1.50;;
51764;SDS011;37835;53.256;6.456;2023-04-03T03:13:39;4.63;;;1.90;;
51764;SDS011;37835;53.256;6.456;2023-04-03T03:16:05;6.27;;;1.50;;
51764;SDS011;37835;53.256;6.456;2023-04-03T03:18:31;8.70;;;2.00;;
51764;SDS011;37835;53.256;6.456;2023-04-03T03:20:58;6.87;;;1.70;;
51764;SDS011;37835;53.256;6.456;2023-04-03T03:23:25;6.23;;;1.40;;
51764;SDS011;37835;53.256;6.456;2023-04-03T03:26:00;5.00;;;1.47;;
51764;SDS011;37835;53.256;6.456;2023-04-03T03:28:28;5.70;;;1.47;;
51764;SDS011;37835;53.256;6.456;2023-04-03T03:30:54;6.97;;;1.60;;
51764;SDS011;37835;53.256;6.456;2023-04-03T03:33:21;7.27;;;1.97;;
51764;SDS011;37835;53.256;6.456;2023-04-03T03:35:47;7.77;;;2.63;;
51764;SDS011;37835;53.256;6.456;2023-04-03T03:38:12;4.77;;;1.47;;
51764;SDS011;37835;53.256;6.456;2023-04-03T03:40:38;4.27;;;1.73;;
51764;SDS011;37835;53.256;6.456;2023-04-03T03:43:04;11.40;;;2.40;;
51764;SDS011;37835;53.256;6.456;2023-04-03T03:45:30;7.57;;;1.90;;
51764;SDS011;37835;53.256;6.456;2023-04-03T03:47:56;5.57;;;1.70;;
51764;SDS011;37835;53.256;6.456;2023-04-03T03:50:21;5.93;;;1.90;;
51764;SDS011;37835;53.256;6.456;2023-04-03T03:52:47;6.27;;;1.80;;
51764;SDS011;37835;53.256;6.456;2023-04-03T03:55:12;5.67;;;1.90;;
51764;SDS011;37835;53.256;6.456;2023-04-03T03:57:38;6.77;;;2.43;;
51764;SDS011;37835;53.256;6.456;2023-04-03T04:00:04;6.57;;;2.03;;
51764;SDS011;37835;53.256;6.456;2023-04-03T04:02:30;6.03;;;2.30;;
51764;SDS011;37835;53.256;6.456;2023-04-03T04:04:55;10.80;;;2.20;;
51764;SDS011;37835;53.256;6.456;2023-04-03T04:07:21;5.43;;;1.83;;
51764;SDS011;37835;53.256;6.456;2023-04-03T04:09:47;5.20;;;2.30;;
51764;SDS011;37835;53.256;6.456;2023-04-03T04:12:12;10.07;;;2.17;;
51764;SDS011;37835;53.256;6.456;2023-04-03T04:14:38;6.43;;;2.27;;
51764;SDS011;37835;53.256;6.456;2023-04-03T04:17:04;9.63;;;2.13;;
51764;SDS011;37835;53.256;6.456;2023-04-03T04:19:30;8.70;;;2.30;;
51764;SDS011;37835;53.256;6.456;2023-04-03T04:21:55;8.50;;;2.00;;
51764;SDS011;37835;53.256;6.456;2023-04-03T04:24:21;6.13;;;2.50;;
51764;SDS011;37835;53.256;6.456;2023-04-03T04:26:47;8.63;;;2.20;;
51764;SDS011;37835;53.256;6.456;2023-04-03T04:29:13;6.33;;;2.20;;
51764;SDS011;37835;53.256;6.456;2023-04-03T04:31:39;9.50;;;2.20;;
51764;SDS011;37835;53.256;6.456;2023-04-03T04:34:05;8.13;;;2.27;;
51764;SDS011;37835;53.256;6.456;2023-04-03T04:36:30;6.07;;;2.30;;
51764;SDS011;37835;53.256;6.456;2023-04-03T04:38:56;6.77;;;1.67;;
51764;SDS011;37835;53.256;6.456;2023-04-03T04:41:23;8.73;;;2.47;;
51764;SDS011;37835;53.256;6.456;2023-04-03T04:43:49;6.47;;;2.00;;
51764;SDS011;37835;53.256;6.456;2023-04-03T04:46:16;6.77;;;2.23;;
51764;SDS011;37835;53.256;6.456;2023-04-03T04:48:42;4.67;;;1.90;;
51764;SDS011;37835;53.256;6.456;2023-04-03T04:51:08;7.23;;;2.10;;
51764;SDS011;37835;53.256;6.456;2023-04-03T04:53:34;9.10;;;2.17;;
51764;SDS011;37835;53.256;6.456;2023-04-03T04:56:00;6.93;;;2.40;;
51764;SDS011;37835;53.256;6.456;2023-04-03T04:58:26;9.93;;;2.33;;
51764;SDS011;37835;53.256;6.456;2023-04-03T05:00:58;7.03;;;2.43;;
51764;SDS011;37835;53.256;6.456;2023-04-03T05:03:25;8.23;;;2.30;;
51764;SDS011;37835;53.256;6.456;2023-04-03T05:05:50;10.83;;;2.53;;
51764;SDS011;37835;53.256;6.456;2023-04-03T05:08:16;7.90;;;2.77;;
51764;SDS011;37835;53.256;6.456;2023-04-03T05:10:41;9.43;;;2.43;;
51764;SDS011;37835;53.256;6.456;2023-04-03T05:13:07;9.13;;;2.53;;
51764;SDS011;37835;53.256;6.456;2023-04-03T05:15:33;13.30;;;2.37;;
51764;SDS011;37835;53.256;6.456;2023-04-03T05:17:58;4.67;;;2.23;;
51764;SDS011;37835;53.256;6.456;2023-04-03T05:20:24;7.10;;;2.70;;
51764;SDS011;37835;53.256;6.456;2023-04-03T05:22:50;8.33;;;2.70;;
51764;SDS011;37835;53.256;6.456;2023-04-03T05:25:15;8.53;;;2.30;;
51764;SDS011;37835;53.256;6.456;2023-04-03T05:27:41;9.60;;;2.87;;
51764;SDS011;37835;53.256;6.456;2023-04-03T05:30:07;6.17;;;2.03;;
51764;SDS011;37835;53.256;6.456;2023-04-03T05:32:33;10.07;;;3.00;;
51764;SDS011;37835;53.256;6.456;2023-04-03T05:34:59;9.33;;;2.60;;
51764;SDS011;37835;53.256;6.456;2023-04-03T05:37:24;7.97;;;3.23;;
51764;SDS011;37835;53.256;6.456;2023-04-03T05:39:50;6.57;;;2.80;;
51764;SDS011;37835;53.256;6.456;2023-04-03T05:42:18;10.10;;;2.43;;
51764;SDS011;37835;53.256;6.456;2023-04-03T05:44:44;4.50;;;2.57;;
51764;SDS011;37835;53.256;6.456;2023-04-03T05:47:12;6.23;;;2.50;;
51764;SDS011;37835;53.256;6.456;2023-04-03T05:49:38;9.67;;;2.83;;
51764;SDS011;37835;53.256;6.456;2023-04-03T05:52:06;5.33;;;2.47;;
51764;SDS011;37835;53.256;6.456;2023-04-03T05:54:42;7.37;;;2.93;;
51764;SDS011;37835;53.256;6.456;2023-04-03T05:57:08;8.30;;;3.00;;
51764;SDS011;37835;53.256;6.456;2023-04-03T05:59:33;6.90;;;2.80;;
51764;SDS011;37835;53.256;6.456;2023-04-03T06:01:59;11.40;;;3.10;;
51764;SDS011;37835;53.256;6.456;2023-04-03T06:04:24;13.40;;;3.37;;
51764;SDS011;37835;53.256;6.456;2023-04-03T06:06:53;9.17;;;2.80;;
51764;SDS011;37835;53.256;6.456;2023-04-03T06:09:21;10.90;;;2.83;;
51764;SDS011;37835;53.256;6.456;2023-04-03T06:11:48;6.73;;;2.63;;
51764;SDS011;37835;53.256;6.456;2023-04-03T06:14:14;9.53;;;3.30;;
51764;SDS011;37835;53.256;6.456;2023-04-03T06:16:40;7.80;;;2.87;;
51764;SDS011;37835;53.256;6.456;2023-04-03T06:19:06;7.47;;;2.60;;
51764;SDS011;37835;53.256;6.456;2023-04-03T06:21:33;6.40;;;2.70;;
51764;SDS011;37835;53.256;6.456;2023-04-03T06:23:59;6.93;;;2.47;;
51764;SDS011;37835;53.256;6.456;2023-04-03T06:26:24;9.53;;;2.80;;
51764;SDS011;37835;53.256;6.456;2023-04-03T06:28:50;10.73;;;2.83;;
51764;SDS011;37835;53.256;6.456;2023-04-03T06:31:15;15.90;;;3.00;;
51764;SDS011;37835;53.256;6.456;2023-04-03T06:33:42;7.60;;;2.70;;
51764;SDS011;37835;53.256;6.456;2023-04-03T06:36:07;9.90;;;3.23;;
51764;SDS011;37835;53.256;6.456;2023-04-03T06:38:34;8.00;;;2.57;;
51764;SDS011;37835;53.256;6.456;2023-04-03T06:41:00;8.77;;;3.10;;
51764;SDS011;37835;53.256;6.456;2023-04-03T06:43:26;11.60;;;2.53;;
51764;SDS011;37835;53.256;6.456;2023-04-03T06:45:51;7.13;;;3.10;;
51764;SDS011;37835;53.256;6.456;2023-04-03T06:48:17;10.00;;;2.87;;
51764;SDS011;37835;53.256;6.456;2023-04-03T06:50:43;12.10;;;2.43;;
51764;SDS011;37835;53.256;6.456;2023-04-03T06:53:09;8.80;;;2.50;;
51764;SDS011;37835;53.256;6.456;2023-04-03T06:55:35;7.63;;;2.37;;
51764;SDS011;37835;53.256;6.456;2023-04-03T06:58:01;7.80;;;2.80;;
51764;SDS011;37835;53.256;6.456;2023-04-03T07:00:26;7.53;;;2.80;;
51764;SDS011;37835;53.256;6.456;2023-04-03T07:02:52;10.57;;;2.67;;
51764;SDS011;37835;53.256;6.456;2023-04-03T07:05:18;12.50;;;3.10;;
51764;SDS011;37835;53.256;6.456;2023-04-03T07:07:44;7.67;;;2.70;;
51764;SDS011;37835;53.256;6.456;2023-04-03T07:10:10;11.47;;;3.60;;
51764;SDS011;37835;53.256;6.456;2023-04-03T07:12:36;8.07;;;3.37;;
51764;SDS011;37835;53.256;6.456;2023-04-03T07:15:03;6.67;;;2.90;;
51764;SDS011;37835;53.256;6.456;2023-04-03T07:17:30;6.87;;;2.70;;
51764;SDS011;37835;53.256;6.456;2023-04-03T07:19:56;11.03;;;3.43;;
51764;SDS011;37835;53.256;6.456;2023-04-03T07:22:21;8.50;;;3.00;;
51764;SDS011;37835;53.256;6.456;2023-04-03T07:24:47;9.37;;;2.60;;
51764;SDS011;37835;53.256;6.456;2023-04-03T07:27:13;9.87;;;3.10;;
51764;SDS011;37835;53.256;6.456;2023-04-03T07:29:38;9.33;;;3.47;;
51764;SDS011;37835;53.256;6.456;2023-04-03T07:32:05;9.83;;;3.00;;
51764;SDS011;37835;53.256;6.456;2023-04-03T07:34:32;8.43;;;3.23;;
51764;SDS011;37835;53.256;6.456;2023-04-03T07:36:58;7.17;;;2.77;;
51764;SDS011;37835;53.256;6.456;2023-04-03T07:39:24;7.65;;;3.08;;
51764;SDS011;37835;53.256;6.456;2023-04-03T07:41:50;10.10;;;3.47;;
51764;SDS011;37835;53.256;6.456;2023-04-03T07:44:16;8.57;;;2.90;;
51764;SDS011;37835;53.256;6.456;2023-04-03T07:46:42;9.73;;;3.47;;
51764;SDS011;37835;53.256;6.456;2023-04-03T07:49:08;10.25;;;3.30;;
51764;SDS011;37835;53.256;6.456;2023-04-03T07:51:34;6.32;;;3.20;;
51764;SDS011;37835;53.256;6.456;2023-04-03T07:54:00;9.35;;;2.88;;
51764;SDS011;37835;53.256;6.456;2023-04-03T07:56:26;9.32;;;2.50;;
51764;SDS011;37835;53.256;6.456;2023-04-03T07:58:52;6.75;;;2.05;;
51764;SDS011;37835;53.256;6.456;2023-04-03T08:01:18;8.57;;;2.45;;
51764;SDS011;37835;53.256;6.456;2023-04-03T08:03:44;5.93;;;2.10;;
51764;SDS011;37835;53.256;6.456;2023-04-03T08:06:09;7.00;;;2.00;;
51764;SDS011;37835;53.256;6.456;2023-04-03T08:08:35;5.47;;;1.67;;
51764;SDS011;37835;53.256;6.456;2023-04-03T08:11:01;4.03;;;2.13;;
51764;SDS011;37835;53.256;6.456;2023-04-03T08:13:30;4.68;;;1.60;;
51764;SDS011;37835;53.256;6.456;2023-04-03T08:15:55;5.63;;;1.88;;
51764;SDS011;37835;53.256;6.456;2023-04-03T08:18:23;3.10;;;1.80;;
51764;SDS011;37835;53.256;6.456;2023-04-03T08:20:50;3.70;;;1.55;;
51764;SDS011;37835;53.256;6.456;2023-04-03T08:23:16;5.88;;;1.65;;
51764;SDS011;37835;53.256;6.456;2023-04-03T08:25:43;4.00;;;1.80;;
51764;SDS011;37835;53.256;6.456;2023-04-03T08:28:10;2.65;;;1.67;;
51764;SDS011;37835;53.256;6.456;2023-04-03T08:30:40;6.75;;;1.88;;
51764;SDS011;37835;53.256;6.456;2023-04-03T08:33:07;3.42;;;1.17;;
51764;SDS011;37835;53.256;6.456;2023-04-03T08:35:37;7.03;;;1.58;;
51764;SDS011;37835;53.256;6.456;2023-04-03T08:38:04;4.82;;;1.85;;
51764;SDS011;37835;53.256;6.456;2023-04-03T08:40:29;5.75;;;1.50;;
51764;SDS011;37835;53.256;6.456;2023-04-03T08:45:25;4.63;;;1.67;;
51764;SDS011;37835;53.256;6.456;2023-04-03T08:48:04;4.00;;;1.40;;
51764;SDS011;37835;53.256;6.456;2023-04-03T08:50:42;4.18;;;1.90;;
51764;SDS011;37835;53.256;6.456;2023-04-03T08:53:12;3.72;;;1.15;;
51764;SDS011;37835;53.256;6.456;2023-04-03T08:55:50;6.93;;;1.52;;
51764;SDS011;37835;53.256;6.456;2023-04-03T08:58:22;5.40;;;1.60;;
51764;SDS011;37835;53.256;6.456;2023-04-03T09:00:50;4.50;;;1.38;;
51764;SDS011;37835;53.256;6.456;2023-04-03T09:03:19;5.78;;;1.42;;
51764;SDS011;37835;53.256;6.456;2023-04-03T09:05:57;5.85;;;1.58;;
51764;SDS011;37835;53.256;6.456;2023-04-03T09:08:43;5.78;;;1.58;;
51764;SDS011;37835;53.256;6.456;2023-04-03T09:11:31;5.90;;;1.50;;
51764;SDS011;37835;53.256;6.456;2023-04-03T09:23:39;9.02;;;1.40;;
51764;SDS011;37835;53.256;6.456;2023-04-03T09:26:21;6.25;;;1.67;;
51764;SDS011;37835;53.256;6.456;2023-04-03T09:28:46;4.68;;;1.23;;
51764;SDS011;37835;53.256;6.456;2023-04-03T09:31:22;4.78;;;1.48;;
51764;SDS011;37835;53.256;6.456;2023-04-03T09:33:50;4.15;;;1.73;;
51764;SDS011;37835;53.256;6.456;2023-04-03T09:36:42;4.18;;;1.50;;
51764;SDS011;37835;53.256;6.456;2023-04-03T09:39:16;5.18;;;1.48;;
51764;SDS011;37835;53.256;6.456;2023-04-03T09:42:02;5.10;;;1.23;;
51764;SDS011;37835;53.256;6.456;2023-04-03T09:44:33;3.10;;;1.08;;
51764;SDS011;37835;53.256;6.456;2023-04-03T09:47:35;4.28;;;0.90;;
51764;SDS011;37835;53.256;6.456;2023-04-03T09:52:39;1.98;;;0.77;;
51764;SDS011;37835;53.256;6.456;2023-04-03T09:55:15;4.28;;;0.93;;
51764;SDS011;37835;53.256;6.456;2023-04-03T09:57:43;2.92;;;0.90;;
51764;SDS011;37835;53.256;6.456;2023-04-03T10:00:23;5.00;;;1.05;;
51764;SDS011;37835;53.256;6.456;2023-04-03T10:02:57;3.92;;;0.80;;
51764;SDS011;37835;53.256;6.456;2023-04-03T10:05:36;3.30;;;0.70;;
51764;SDS011;37835;53.256;6.456;2023-04-03T10:10:38;1.70;;;0.60;;
51764;SDS011;37835;53.256;6.456;2023-04-03T10:15:44;0.98;;;0.60;;
51764;SDS011;37835;53.256;6.456;2023-04-03T10:18:22;2.08;;;0.73;;
51764;SDS011;37835;53.256;6.456;2023-04-03T10:21:08;6.70;;;1.10;;
51764;SDS011;37835;53.256;6.456;2023-04-03T10:31:53;2.83;;;0.90;;
51764;SDS011;37835;53.256;6.456;2023-04-03T10:34:30;2.40;;;0.88;;
51764;SDS011;37835;53.256;6.456;2023-04-03T10:37:34;2.67;;;1.13;;
51764;SDS011;37835;53.256;6.456;2023-04-03T10:39:59;1.92;;;0.80;;
51764;SDS011;37835;53.256;6.456;2023-04-03T10:42:50;2.22;;;0.60;;
51764;SDS011;37835;53.256;6.456;2023-04-03T10:50:39;0.85;;;0.50;;
51764;SDS011;37835;53.256;6.456;2023-04-03T10:58:38;3.35;;;0.60;;
51764;SDS011;37835;53.256;6.456;2023-04-03T11:01:08;1.13;;;0.70;;
51764;SDS011;37835;53.256;6.456;2023-04-03T11:03:45;2.47;;;1.00;;
51764;SDS011;37835;53.256;6.456;2023-04-03T11:06:15;2.80;;;0.65;;
51764;SDS011;37835;53.256;6.456;2023-04-03T11:09:01;2.67;;;0.70;;
51764;SDS011;37835;53.256;6.456;2023-04-03T11:11:38;3.20;;;0.93;;
51764;SDS011;37835;53.256;6.456;2023-04-03T11:14:22;3.13;;;0.90;;
51764;SDS011;37835;53.256;6.456;2023-04-03T11:17:06;1.23;;;0.63;;
51764;SDS011;37835;53.256;6.456;2023-04-03T11:19:44;1.63;;;0.47;;
51764;SDS011;37835;53.256;6.456;2023-04-03T11:22:22;5.05;;;0.80;;
51764;SDS011;37835;53.256;6.456;2023-04-03T11:25:30;2.42;;;0.60;;
51764;SDS011;37835;53.256;6.456;2023-04-03T11:27:57;4.63;;;1.15;;
51764;SDS011;37835;53.256;6.456;2023-04-03T11:30:33;1.23;;;0.52;;
51764;SDS011;37835;53.256;6.456;2023-04-03T11:36:04;1.90;;;0.70;;
51764;SDS011;37835;53.256;6.456;2023-04-03T11:38:35;1.70;;;0.50;;
51764;SDS011;37835;53.256;6.456;2023-04-03T11:41:06;2.97;;;0.90;;
51764;SDS011;37835;53.256;6.456;2023-04-03T11:43:33;2.25;;;0.60;;
51764;SDS011;37835;53.256;6.456;2023-04-03T11:46:05;3.72;;;0.65;;
51764;SDS011;37835;53.256;6.456;2023-04-03T11:53:38;3.47;;;0.90;;
51764;SDS011;37835;53.256;6.456;2023-04-03T11:59:50;1.63;;;0.57;;
51764;SDS011;37835;53.256;6.456;2023-04-03T12:01:52;1.88;;;0.52;;
51764;SDS011;37835;53.256;6.456;2023-04-03T12:04:20;1.10;;;0.60;;
51764;SDS011;37835;53.256;6.456;2023-04-03T12:11:47;2.03;;;0.65;;
51764;SDS011;37835;53.256;6.456;2023-04-03T12:14:14;2.20;;;0.68;;
51764;SDS011;37835;53.256;6.456;2023-04-03T12:16:42;1.05;;;0.50;;
51764;SDS011;37835;53.256;6.456;2023-04-03T12:24:28;1.30;;;0.40;;
51764;SDS011;37835;53.256;6.456;2023-04-03T12:29:27;4.38;;;0.50;;
51764;SDS011;37835;53.256;6.456;2023-04-03T12:48:56;2.85;;;0.50;;
51764;SDS011;37835;53.256;6.456;2023-04-03T12:54:26;5.72;;;0.63;;
51764;SDS011;37835;53.256;6.456;2023-04-03T12:59:40;2.42;;;0.80;;
51764;SDS011;37835;53.256;6.456;2023-04-03T13:04:46;5.07;;;0.95;;
51764;SDS011;37835;53.256;6.456;2023-04-03T13:07:25;2.83;;;0.60;;
51764;SDS011;37835;53.256;6.456;2023-04-03T13:10:00;2.35;;;0.68;;
51764;SDS011;37835;53.256;6.456;2023-04-03T13:12:29;1.02;;;0.80;;
51764;SDS011;37835;53.256;6.456;2023-04-03T13:14:56;1.73;;;0.90;;
51764;SDS011;37835;53.256;6.456;2023-04-03T13:17:24;1.77;;;0.80;;
51764;SDS011;37835;53.256;6.456;2023-04-03T13:19:51;1.73;;;0.80;;
51764;SDS011;37835;53.256;6.456;2023-04-03T13:24:48;4.85;;;0.73;;
51764;SDS011;37835;53.256;6.456;2023-04-03T13:27:15;7.43;;;0.80;;
51764;SDS011;37835;53.256;6.456;2023-04-03T13:29:41;1.95;;;0.90;;
51764;SDS011;37835;53.256;6.456;2023-04-03T13:32:14;1.48;;;0.65;;
51764;SDS011;37835;53.256;6.456;2023-04-03T13:34:44;2.97;;;0.90;;
51764;SDS011;37835;53.256;6.456;2023-04-03T13:37:21;2.55;;;0.75;;
51764;SDS011;37835;53.256;6.456;2023-04-03T13:42:33;3.33;;;1.50;;
51764;SDS011;37835;53.256;6.456;2023-04-03T13:45:09;3.45;;;1.40;;
51764;SDS011;37835;53.256;6.456;2023-04-03T13:47:38;7.55;;;2.30;;
51764;SDS011;37835;53.256;6.456;2023-04-03T13:52:47;3.92;;;1.00;;
51764;SDS011;37835;53.256;6.456;2023-04-03T13:55:25;4.43;;;0.98;;
51764;SDS011;37835;53.256;6.456;2023-04-03T14:00:35;4.50;;;1.27;;
51764;SDS011;37835;53.256;6.456;2023-04-03T14:05:58;5.25;;;1.33;;
51764;SDS011;37835;53.256;6.456;2023-04-03T14:08:26;3.00;;;1.13;;
51764;SDS011;37835;53.256;6.456;2023-04-03T14:10:52;4.03;;;0.90;;
51764;SDS011;37835;53.256;6.456;2023-04-03T14:13:19;3.50;;;0.80;;
51764;SDS011;37835;53.256;6.456;2023-04-03T14:15:46;5.03;;;1.50;;
51764;SDS011;37835;53.256;6.456;2023-04-03T14:18:14;2.92;;;1.27;;
51764;SDS011;37835;53.256;6.456;2023-04-03T14:20:43;3.38;;;1.13;;
51764;SDS011;37835;53.256;6.456;2023-04-03T14:23:09;1.67;;;0.80;;
51764;SDS011;37835;53.256;6.456;2023-04-03T14:25:35;3.35;;;0.88;;
51764;SDS011;37835;53.256;6.456;2023-04-03T14:28:01;1.25;;;0.80;;
51764;SDS011;37835;53.256;6.456;2023-04-03T14:30:48;3.50;;;0.95;;
51764;SDS011;37835;53.256;6.456;2023-04-03T14:33:16;3.25;;;0.93;;
51764;SDS011;37835;53.256;6.456;2023-04-03T14:35:43;1.42;;;0.60;;
51764;SDS011;37835;53.256;6.456;2023-04-03T14:38:20;1.50;;;0.50;;
51764;SDS011;37835;53.256;6.456;2023-04-03T14:40:49;4.10;;;0.60;;
51764;SDS011;37835;53.256;6.456;2023-04-03T14:43:14;1.60;;;0.70;;
51764;SDS011;37835;53.256;6.456;2023-04-03T14:45:41;2.35;;;0.75;;
51764;SDS011;37835;53.256;6.456;2023-04-03T14:48:09;4.88;;;0.55;;
51764;SDS011;37835;53.256;6.456;2023-04-03T14:50:41;5.57;;;1.15;;
51764;SDS011;37835;53.256;6.456;2023-04-03T14:53:07;3.13;;;0.70;;
51764;SDS011;37835;53.256;6.456;2023-04-03T14:55:32;1.60;;;0.50;;
51764;SDS011;37835;53.256;6.456;2023-04-03T14:57:58;2.90;;;0.85;;
51764;SDS011;37835;53.256;6.456;2023-04-03T15:00:24;3.00;;;0.60;;
51764;SDS011;37835;53.256;6.456;2023-04-03T15:02:49;2.55;;;1.10;;
51764;SDS011;37835;53.256;6.456;2023-04-03T15:05:15;2.80;;;0.70;;
51764;SDS011;37835;53.256;6.456;2023-04-03T15:07:47;3.67;;;1.00;;
51764;SDS011;37835;53.256;6.456;2023-04-03T15:10:16;2.55;;;0.70;;
51764;SDS011;37835;53.256;6.456;2023-04-03T15:12:44;2.70;;;0.68;;
51764;SDS011;37835;53.256;6.456;2023-04-03T15:15:11;2.15;;;0.47;;
51764;SDS011;37835;53.256;6.456;2023-04-03T15:17:37;2.38;;;0.60;;
51764;SDS011;37835;53.256;6.456;2023-04-03T15:20:10;1.50;;;0.50;;
51764;SDS011;37835;53.256;6.456;2023-04-03T15:22:38;5.00;;;1.27;;
51764;SDS011;37835;53.256;6.456;2023-04-03T15:25:04;2.13;;;0.40;;
51764;SDS011;37835;53.256;6.456;2023-04-03T15:27:29;1.75;;;0.35;;
51764;SDS011;37835;53.256;6.456;2023-04-03T15:29:55;8.82;;;1.02;;
51764;SDS011;37835;53.256;6.456;2023-04-03T15:32:24;3.65;;;0.73;;
51764;SDS011;37835;53.256;6.456;2023-04-03T15:34:49;1.95;;;0.45;;
51764;SDS011;37835;53.256;6.456;2023-04-03T15:37:15;2.55;;;0.45;;
51764;SDS011;37835;53.256;6.456;2023-04-03T15:39:41;1.75;;;0.60;;
51764;SDS011;37835;53.256;6.456;2023-04-03T15:42:06;1.35;;;0.50;;
51764;SDS011;37835;53.256;6.456;2023-04-03T15:44:32;1.63;;;0.45;;
51764;SDS011;37835;53.256;6.456;2023-04-03T15:47:01;1.60;;;0.40;;
51764;SDS011;37835;53.256;6.456;2023-04-03T15:49:27;3.08;;;1.20;;
51764;SDS011;37835;53.256;6.456;2023-04-03T15:51:53;3.05;;;0.60;;
51764;SDS011;37835;53.256;6.456;2023-04-03T15:54:19;1.80;;;0.60;;
51764;SDS011;37835;53.256;6.456;2023-04-03T15:56:44;2.42;;;0.45;;
51764;SDS011;37835;53.256;6.456;2023-04-03T15:59:10;1.52;;;0.57;;
51764;SDS011;37835;53.256;6.456;2023-04-03T16:01:36;1.42;;;0.60;;
51764;SDS011;37835;53.256;6.456;2023-04-03T16:04:03;1.50;;;0.68;;
51764;SDS011;37835;53.256;6.456;2023-04-03T16:06:32;2.38;;;0.50;;
51764;SDS011;37835;53.256;6.456;2023-04-03T16:08:58;1.38;;;0.57;;
51764;SDS011;37835;53.256;6.456;2023-04-03T16:11:26;2.63;;;0.70;;
51764;SDS011;37835;53.256;6.456;2023-04-03T16:13:52;5.07;;;0.80;;
51764;SDS011;37835;53.256;6.456;2023-04-03T16:16:18;2.05;;;0.70;;
51764;SDS011;37835;53.256;6.456;2023-04-03T16:18:45;2.03;;;0.60;;
51764;SDS011;37835;53.256;6.456;2023-04-03T16:21:12;2.35;;;0.65;;
51764;SDS011;37835;53.256;6.456;2023-04-03T16:23:39;4.45;;;0.75;;
51764;SDS011;37835;53.256;6.456;2023-04-03T16:26:05;2.13;;;0.60;;
51764;SDS011;37835;53.256;6.456;2023-04-03T16:28:31;2.45;;;0.43;;
51764;SDS011;37835;53.256;6.456;2023-04-03T16:30:57;1.70;;;0.77;;
51764;SDS011;37835;53.256;6.456;2023-04-03T16:33:23;1.48;;;0.57;;
51764;SDS011;37835;53.256;6.456;2023-04-03T16:35:49;4.50;;;0.77;;
51764;SDS011;37835;53.256;6.456;2023-04-03T16:38:15;1.70;;;0.43;;
51764;SDS011;37835;53.256;6.456;2023-04-03T16:40:41;3.33;;;0.90;;